createdAt,value
2023-03-31T08:53:05.624Z,96430.75
2023-03-31T08:55:44.927Z,96428.31
2023-03-31T09:00:48.156Z,96435.16
2023-03-31T09:03:24.406Z,96423.94
2023-03-31T09:06:01.216Z,96445.81
2023-03-31T11:23:42.069Z,94360.44
2023-03-31T11:26:16.616Z,94367.59
2023-03-31T11:29:04.644Z,94368.44
2023-03-31T11:31:43.395Z,94355.16
2023-03-31T11:34:31.848Z,94370.13
2023-03-31T11:37:05.071Z,94392.50
2023-03-31T11:39:50.338Z,94408.72
2023-03-31T11:42:29.350Z,94404.84
2023-03-31T11:45:00.344Z,94421.72
2023-03-31T11:47:31.149Z,94445.50
2023-03-31T11:50:21.622Z,94460.00
2023-03-31T11:52:56.982Z,94438.59
2023-03-31T11:55:23.678Z,94479.59
2023-03-31T11:58:04.997Z,94485.22
2023-03-31T12:00:50.411Z,94497.09
2023-03-31T12:03:24.133Z,94501.28
2023-03-31T12:05:56.650Z,94535.31
2023-03-31T12:08:33.735Z,94528.06
2023-03-31T12:11:08.430Z,94519.97
2023-03-31T12:14:04.042Z,94531.09
2023-03-31T12:16:40.162Z,94501.06
2023-03-31T12:19:17.482Z,94330.78
2023-03-31T12:22:00.490Z,94507.31
2023-03-31T12:24:27.271Z,94512.34
2023-03-31T12:27:02.498Z,94506.41
2023-03-31T12:29:57.142Z,94523.75
2023-03-31T12:32:27.136Z,94508.03
2023-03-31T12:35:06.869Z,94497.41
2023-03-31T12:38:10.033Z,94500.00
2023-03-31T12:41:08.401Z,94479.88
2023-03-31T12:44:02.264Z,94472.34
2023-03-31T12:46:40.817Z,94468.16
2023-03-31T12:49:28.860Z,94462.38
2023-03-31T12:51:58.304Z,94297.81
2023-03-31T12:54:52.557Z,94465.91
2023-03-31T12:57:21.106Z,94459.81
2023-03-31T13:00:07.732Z,94445.50
2023-03-31T13:02:34.559Z,94453.06
2023-03-31T13:05:15.472Z,94455.63
2023-03-31T13:07:42.265Z,94440.38
2023-03-31T13:10:14.984Z,94423.66
2023-03-31T13:12:41.862Z,94441.66
2023-03-31T13:15:13.493Z,94414.34
2023-03-31T13:17:40.385Z,94408.19
2023-03-31T13:20:38.839Z,94386.34
2023-03-31T13:23:12.198Z,94392.59
2023-03-31T13:25:44.231Z,94386.94
2023-03-31T13:28:23.885Z,94384.72
2023-03-31T13:31:09.224Z,94379.72
2023-03-31T13:33:47.465Z,94368.91
2023-03-31T13:36:32.613Z,94375.66
2023-03-31T13:39:10.462Z,94365.38
2023-03-31T13:41:51.376Z,94364.59
2023-03-31T13:44:39.608Z,94364.09
2023-03-31T13:47:34.127Z,94354.13
2023-03-31T13:50:13.278Z,94352.84
2023-03-31T13:53:19.644Z,94334.88
2023-03-31T13:55:46.272Z,94330.38
2023-03-31T13:58:35.279Z,94339.06
2023-03-31T14:01:21.734Z,94330.81
2023-03-31T14:03:57.716Z,94328.56
2023-03-31T14:06:45.260Z,94341.56
2023-03-31T14:09:22.464Z,94336.88
2023-03-31T14:11:49.185Z,94337.22
2023-03-31T14:14:17.083Z,94334.50
2023-03-31T14:16:48.777Z,94328.56
2023-03-31T14:19:52.774Z,94320.84
2023-03-31T14:22:56.608Z,94358.59
2023-03-31T14:26:01.402Z,94389.09
2023-03-31T14:28:37.077Z,94442.19
2023-03-31T14:31:15.325Z,94402.88
2023-03-31T14:34:15.537Z,94384.06
2023-03-31T14:36:46.190Z,94389.94
